Time;durP1;ratioP1;P1;durP2;ratioP2;P2;SDS_P1;SDS_P2;PMS_P1;PMS_P2;Temp;Humidity;BMP_temperature;BMP_pressure;BME280_temperature;BME280_humidity;BME280_pressure;Samples;Min_cycle;Max_cycle;Signal;HPM_P1;HPM_P2
2023/06/19 00:01:29;;;;;;;13.05;9.10;;;23.00;99.90;;;;;;5016159;28;20022;-70
2023/06/19 00:03:54;;;;;;;14.57;9.25;;;22.80;99.90;;;;;;5016917;28;20029;-70
2023/06/19 00:06:20;;;;;;;15.65;9.35;;;22.70;99.90;;;;;;5016687;28;20018;-71
2023/06/19 00:08:45;;;;;;;14.38;9.70;;;22.50;99.90;;;;;;5017299;28;20028;-70
2023/06/19 00:11:11;;;;;;;16.40;10.05;;;22.70;99.90;;;;;;5016419;28;20040;-70
2023/06/19 00:13:36;;;;;;;10.43;8.63;;;22.80;99.90;;;;;;5017212;28;20026;-70
2023/06/19 00:16:02;;;;;;;16.02;9.80;;;22.80;99.90;;;;;;5016575;28;20026;-70
2023/06/19 00:18:28;;;;;;;11.95;9.43;;;22.90;99.90;;;;;;5016402;28;20053;-71
2023/06/19 00:20:56;;;;;;;13.55;8.82;;;22.90;99.90;;;;;;5000165;28;20128;-70
2023/06/19 00:23:22;;;;;;;14.57;9.05;;;22.80;99.90;;;;;;5016402;28;20249;-71
2023/06/19 00:25:48;;;;;;;12.07;8.85;;;22.70;99.90;;;;;;5016710;28;20022;-71
2023/06/19 00:28:14;;;;;;;12.25;9.68;;;22.70;99.90;;;;;;5016381;28;20045;-71
2023/06/19 00:30:41;;;;;;;14.95;9.38;;;22.50;99.90;;;;;;5016335;28;20117;-71
2023/06/19 00:33:07;;;;;;;11.63;8.77;;;22.50;99.90;;;;;;5016518;28;20053;-71
2023/06/19 00:35:33;;;;;;;10.25;8.95;;;22.30;99.90;;;;;;5016626;28;20064;-71
2023/06/19 00:38:01;;;;;;;11.98;8.82;;;22.40;99.90;;;;;;5016141;28;20022;-71
2023/06/19 00:40:29;;;;;;;10.73;8.50;;;22.40;99.90;;;;;;5016447;28;20029;-70
2023/06/19 00:42:56;;;;;;;9.75;8.15;;;22.50;99.90;;;;;;5016339;28;20029;-71
2023/06/19 00:45:23;;;;;;;11.68;8.25;;;22.70;99.90;;;;;;5016922;28;20054;-71
2023/06/19 00:47:49;;;;;;;11.80;8.20;;;22.80;99.90;;;;;;5016816;28;20086;-71
2023/06/19 00:50:15;;;;;;;10.85;7.78;;;22.60;99.90;;;;;;5016781;28;20064;-71
2023/06/19 00:52:40;;;;;;;10.32;7.20;;;22.60;99.90;;;;;;5016101;28;20026;-71
2023/06/19 00:55:07;;;;;;;11.77;7.60;;;22.60;99.90;;;;;;5015946;28;20037;-71
2023/06/19 00:57:33;;;;;;;11.77;8.00;;;22.80;99.90;;;;;;5016231;28;20089;-70
2023/06/19 00:59:59;;;;;;;12.82;7.43;;;22.80;99.90;;;;;;5016624;28;20125;-71
2023/06/19 01:02:25;;;;;;;10.40;7.18;;;22.80;99.90;;;;;;5016807;28;20059;-71
2023/06/19 01:04:51;;;;;;;8.82;7.30;;;22.90;99.90;;;;;;5015981;28;20025;-71
2023/06/19 01:07:27;;;;;;;8.88;7.72;;;22.80;99.90;;;;;;5016248;28;20026;-71
2023/06/19 01:09:59;;;;;;;9.45;7.60;;;22.80;99.90;;;;;;5016822;28;20034;-70
2023/06/19 01:12:31;;;;;;;11.05;8.68;;;22.80;99.90;;;;;;5016341;28;20026;-71
2023/06/19 01:15:03;;;;;;;9.52;8.52;;;22.80;99.90;;;;;;5020204;28;20108;-70
2023/06/19 01:17:29;;;;;;;10.60;8.38;;;22.80;99.90;;;;;;5019953;28;20026;-70
2023/06/19 01:19:56;;;;;;;10.18;8.75;;;22.80;99.90;;;;;;5020005;28;20033;-70
2023/06/19 01:22:24;;;;;;;12.35;8.93;;;22.70;99.90;;;;;;5020053;28;20029;-70
2023/06/19 01:24:50;;;;;;;13.00;9.18;;;22.50;99.90;;;;;;5019849;28;20032;-70
2023/06/19 01:27:15;;;;;;;11.63;8.13;;;22.50;99.90;;;;;;5019552;28;20108;-71
2023/06/19 01:29:41;;;;;;;13.85;9.40;;;22.60;99.90;;;;;;5019755;28;20053;-71
2023/06/19 01:32:13;;;;;;;12.27;8.85;;;22.70;99.90;;;;;;5019465;28;20057;-70
2023/06/19 01:34:39;;;;;;;9.85;8.07;;;22.60;99.90;;;;;;5019891;28;20034;-71
2023/06/19 01:37:06;;;;;;;13.70;8.10;;;22.60;99.90;;;;;;5019388;28;20069;-71
2023/06/19 01:39:33;;;;;;;12.95;8.68;;;22.70;99.90;;;;;;5019484;28;20272;-71
2023/06/19 01:41:59;;;;;;;12.57;7.95;;;22.70;99.90;;;;;;5019613;28;20018;-71
2023/06/19 01:44:25;;;;;;;10.38;8.23;;;22.70;99.90;;;;;;5019132;28;20022;-71
2023/06/19 01:46:51;;;;;;;12.27;8.15;;;22.60;99.90;;;;;;5019930;28;20053;-71
2023/06/19 01:49:18;;;;;;;10.07;7.60;;;22.50;99.90;;;;;;5019319;28;20022;-71
2023/06/19 01:51:43;;;;;;;11.40;8.02;;;22.40;99.90;;;;;;5019521;28;20037;-71
2023/06/19 01:54:09;;;;;;;9.40;8.07;;;22.10;99.90;;;;;;5019283;28;20029;-71
2023/06/19 01:56:35;;;;;;;12.77;9.15;;;22.20;99.90;;;;;;5019266;28;20026;-71
2023/06/19 01:59:01;;;;;;;12.27;8.68;;;22.30;99.90;;;;;;5019152;28;20025;-71
2023/06/19 02:01:26;;;;;;;12.93;8.65;;;22.10;99.90;;;;;;5019182;28;20076;-71
2023/06/19 02:03:52;;;;;;;9.98;8.20;;;22.10;99.90;;;;;;5019540;28;20022;-71
2023/06/19 02:06:17;;;;;;;11.95;8.75;;;22.20;99.90;;;;;;5018810;28;20022;-71
2023/06/19 02:08:43;;;;;;;13.55;8.52;;;22.30;99.90;;;;;;5019187;28;20140;-71
2023/06/19 02:11:08;;;;;;;10.60;8.40;;;22.20;99.90;;;;;;5018695;28;20022;-71
2023/06/19 02:13:34;;;;;;;10.20;8.10;;;22.10;99.90;;;;;;5018877;28;20026;-71
2023/06/19 02:15:59;;;;;;;16.27;9.35;;;22.20;99.90;;;;;;5019560;28;20072;-71
2023/06/19 02:18:25;;;;;;;12.35;8.63;;;22.40;99.90;;;;;;5018991;28;20057;-71
2023/06/19 02:20:51;;;;;;;13.27;8.75;;;22.40;99.90;;;;;;5018724;28;20022;-71
2023/06/19 02:23:16;;;;;;;12.80;7.80;;;22.30;99.90;;;;;;5018690;28;20045;-71
2023/06/19 02:25:42;;;;;;;10.38;8.07;;;22.20;99.90;;;;;;5018406;28;20032;-71
2023/06/19 02:28:07;;;;;;;11.40;8.52;;;22.10;99.90;;;;;;5018326;28;20030;-71
2023/06/19 02:30:33;;;;;;;9.75;8.05;;;22.10;99.90;;;;;;5018707;28;20109;-71
2023/06/19 02:32:58;;;;;;;10.93;8.60;;;22.10;99.90;;;;;;5018725;28;20028;-71
2023/06/19 02:35:24;;;;;;;12.57;8.45;;;22.10;99.90;;;;;;5019336;28;20117;-71
2023/06/19 02:37:50;;;;;;;10.27;8.05;;;22.10;99.90;;;;;;5018325;28;20033;-71
2023/06/19 02:40:15;;;;;;;9.70;8.38;;;22.20;99.90;;;;;;5018407;28;20021;-71
2023/06/19 02:42:41;;;;;;;10.88;8.07;;;22.10;99.90;;;;;;5018513;28;20037;-71
2023/06/19 02:45:07;;;;;;;11.75;8.50;;;22.00;99.90;;;;;;5017978;28;20026;-71
2023/06/19 02:47:33;;;;;;;12.48;9.00;;;22.10;99.90;;;;;;5018788;28;20076;-71
2023/06/19 02:49:59;;;;;;;13.10;9.63;;;22.00;99.90;;;;;;5018283;28;20033;-71
2023/06/19 02:52:25;;;;;;;11.50;8.98;;;21.60;99.90;;;;;;5017926;28;20100;-71
2023/06/19 02:54:51;;;;;;;9.80;8.63;;;21.60;99.90;;;;;;5018143;28;20026;-71
2023/06/19 02:57:17;;;;;;;10.85;8.93;;;21.70;99.90;;;;;;5018058;28;20030;-71
2023/06/19 02:59:42;;;;;;;10.45;8.45;;;21.60;99.90;;;;;;5018005;28;20117;-71
2023/06/19 03:02:08;;;;;;;10.05;8.48;;;21.50;99.90;;;;;;5017894;28;20029;-71
2023/06/19 03:04:33;;;;;;;12.05;8.82;;;21.60;99.90;;;;;;5017765;28;20026;-71
2023/06/19 03:06:59;;;;;;;12.77;8.70;;;21.50;99.90;;;;;;5017754;28;20018;-71
2023/06/19 03:09:24;;;;;;;16.83;8.85;;;21.40;99.90;;;;;;5017790;28;20018;-71
2023/06/19 03:11:50;;;;;;;11.07;9.10;;;21.60;99.90;;;;;;5017879;28;20022;-71
2023/06/19 03:14:15;;;;;;;12.20;9.07;;;21.80;99.90;;;;;;5018545;28;20056;-71
2023/06/19 03:16:41;;;;;;;12.80;9.57;;;21.70;99.90;;;;;;5017444;28;20108;-71
2023/06/19 03:19:06;;;;;;;11.90;8.55;;;21.80;99.90;;;;;;5017813;28;20072;-71
2023/06/19 03:21:32;;;;;;;11.38;9.05;;;22.00;99.90;;;;;;5017561;28;20026;-71
2023/06/19 03:23:57;;;;;;;11.60;9.07;;;22.00;99.90;;;;;;5017561;28;20026;-71
2023/06/19 03:26:24;;;;;;;12.07;9.52;;;22.00;99.90;;;;;;5017198;28;20022;-71
2023/06/19 03:28:50;;;;;;;13.30;8.48;;;22.00;99.90;;;;;;5017369;28;20026;-71
2023/06/19 03:31:16;;;;;;;14.40;9.52;;;22.10;99.90;;;;;;5017174;28;20129;-71
2023/06/19 03:33:41;;;;;;;11.50;8.73;;;22.10;99.90;;;;;;5017320;28;20084;-71
2023/06/19 03:36:07;;;;;;;11.90;8.55;;;22.10;99.90;;;;;;5017525;28;20053;-71
2023/06/19 03:38:33;;;;;;;12.93;9.45;;;22.20;99.90;;;;;;5016699;28;20060;-71
2023/06/19 03:40:58;;;;;;;13.70;9.43;;;22.40;99.90;;;;;;5017360;28;20029;-71
2023/06/19 03:43:24;;;;;;;12.20;9.35;;;22.50;99.90;;;;;;5017420;28;20026;-71
2023/06/19 03:45:49;;;;;;;13.63;9.93;;;22.40;99.90;;;;;;5017798;28;20014;-71
2023/06/19 03:48:16;;;;;;;13.80;9.30;;;22.40;99.90;;;;;;5017360;28;20109;-71
2023/06/19 03:50:42;;;;;;;14.35;9.02;;;22.30;99.90;;;;;;5016936;28;20075;-71
2023/06/19 03:53:07;;;;;;;14.35;9.07;;;22.20;99.90;;;;;;5016777;28;20030;-71
2023/06/19 03:55:33;;;;;;;13.27;9.13;;;22.30;99.90;;;;;;5017094;28;20069;-71
2023/06/19 03:57:58;;;;;;;11.85;8.98;;;22.20;99.90;;;;;;5017270;28;20041;-71
2023/06/19 04:00:24;;;;;;;13.43;9.05;;;22.20;99.90;;;;;;5016908;28;20025;-71
2023/06/19 04:02:50;;;;;;;15.30;9.68;;;22.10;99.90;;;;;;5016527;28;20033;-71
2023/06/19 04:05:15;;;;;;;11.82;8.95;;;22.00;99.90;;;;;;5016780;28;20093;-71
2023/06/19 04:07:41;;;;;;;16.67;9.70;;;21.80;99.90;;;;;;5016650;28;20032;-71
2023/06/19 04:10:07;;;;;;;14.18;9.23;;;21.80;99.90;;;;;;5016837;28;20097;-71
2023/06/19 04:12:33;;;;;;;13.45;9.48;;;21.70;99.90;;;;;;5016790;28;20025;-71
2023/06/19 04:14:59;;;;;;;13.73;9.48;;;21.60;99.90;;;;;;5016465;28;20037;-71
2023/06/19 04:17:24;;;;;;;15.30;9.60;;;21.50;99.90;;;;;;5016841;28;20030;-71
2023/06/19 04:19:50;;;;;;;12.65;8.50;;;21.40;99.90;;;;;;5016688;28;20026;-71
2023/06/19 04:22:15;;;;;;;15.18;9.23;;;21.30;99.90;;;;;;5016425;28;20022;-71
2023/06/19 04:24:41;;;;;;;15.07;9.15;;;21.30;99.90;;;;;;5016540;28;20029;-71
2023/06/19 04:27:08;;;;;;;15.75;9.50;;;21.40;99.90;;;;;;5016395;28;20021;-71
2023/06/19 04:29:34;;;;;;;15.13;9.52;;;21.40;99.90;;;;;;5016583;28;20053;-71
2023/06/19 04:31:59;;;;;;;14.70;9.35;;;21.40;99.90;;;;;;5016566;28;20018;-71
2023/06/19 04:34:25;;;;;;;18.45;8.90;;;21.40;99.90;;;;;;5016088;28;20037;-71
2023/06/19 04:36:51;;;;;;;14.80;9.38;;;21.50;99.90;;;;;;5017022;28;20026;-71
2023/06/19 04:39:17;;;;;;;14.00;8.95;;;21.60;99.90;;;;;;5016305;28;20053;-71
2023/06/19 04:41:43;;;;;;;12.88;8.77;;;21.70;99.90;;;;;;5016397;28;20057;-71
2023/06/19 04:44:12;;;;;;;14.05;9.45;;;21.80;99.90;;;;;;5016085;28;20022;-71
2023/06/19 04:46:38;;;;;;;13.48;8.65;;;21.50;99.90;;;;;;5016937;28;20022;-71
2023/06/19 04:49:04;;;;;;;13.90;9.50;;;21.40;99.90;;;;;;5018991;28;20028;-71
2023/06/19 04:51:32;;;;;;;11.45;8.38;;;21.50;99.90;;;;;;5020677;28;20025;-71
2023/06/19 04:54:01;;;;;;;15.48;9.35;;;21.50;99.90;;;;;;5020399;28;20037;-71
2023/06/19 04:56:26;;;;;;;12.48;8.23;;;21.50;99.90;;;;;;5020318;28;20030;-71
2023/06/19 04:58:55;;;;;;;13.20;7.97;;;21.70;99.90;;;;;;5020804;28;20120;-71
2023/06/19 05:01:27;;;;;;;12.48;8.30;;;21.90;99.90;;;;;;5020379;28;20026;-71
2023/06/19 05:03:54;;;;;;;10.60;7.63;;;22.20;99.90;;;;;;5020620;28;20071;-71
2023/06/19 05:06:20;;;;;;;12.25;7.97;;;22.30;99.90;;;;;;5020771;28;20030;-71
2023/06/19 05:08:46;;;;;;;11.52;7.70;;;22.40;99.90;;;;;;5020062;28;20120;-71
2023/06/19 05:11:11;;;;;;;12.25;8.32;;;22.60;99.90;;;;;;5020625;28;20061;-71
2023/06/19 05:13:37;;;;;;;20.17;8.45;;;22.60;99.90;;;;;;5020483;28;20025;-71
2023/06/19 05:16:02;;;;;;;10.73;8.57;;;22.60;99.90;;;;;;5020242;28;20036;-71
2023/06/19 05:18:28;;;;;;;14.10;9.13;;;22.60;99.90;;;;;;5019980;28;20026;-71
2023/06/19 05:20:53;;;;;;;12.40;8.90;;;22.70;99.90;;;;;;5019615;28;20029;-71
2023/06/19 05:23:19;;;;;;;15.75;8.77;;;22.60;99.90;;;;;;5019908;28;20032;-71
2023/06/19 05:25:45;;;;;;;13.82;8.63;;;22.40;99.90;;;;;;5019918;28;20026;-71
2023/06/19 05:28:11;;;;;;;12.80;8.60;;;22.20;99.90;;;;;;5019577;28;20049;-71
2023/06/19 05:30:36;;;;;;;12.63;8.90;;;22.00;99.90;;;;;;5019387;28;20029;-71
2023/06/19 05:33:02;;;;;;;14.30;8.85;;;21.90;99.90;;;;;;5019549;28;20196;-71
2023/06/19 05:35:27;;;;;;;16.10;9.52;;;22.00;99.90;;;;;;5019575;28;20116;-71
2023/06/19 05:37:53;;;;;;;19.10;9.18;;;21.90;99.90;;;;;;5019696;28;20124;-71
2023/06/19 05:40:19;;;;;;;11.57;8.32;;;21.90;99.90;;;;;;5020197;28;20167;-71
2023/06/19 05:42:44;;;;;;;13.15;9.10;;;21.90;99.90;;;;;;5020118;28;20026;-71
2023/06/19 05:45:11;;;;;;;9.82;7.22;;;22.10;99.90;;;;;;5019383;28;20029;-71
2023/06/19 05:47:36;;;;;;;9.20;6.93;;;22.40;99.90;;;;;;5019541;28;20018;-71
2023/06/19 05:50:02;;;;;;;12.13;6.80;;;22.70;99.90;;;;;;5019650;28;20032;-71
2023/06/19 05:52:28;;;;;;;10.60;6.50;;;22.70;99.90;;;;;;5019362;28;20117;-71
2023/06/19 05:54:53;;;;;;;11.63;6.28;;;22.90;99.90;;;;;;5019093;28;20030;-71
2023/06/19 05:57:22;;;;;;;8.80;6.13;;;22.90;99.90;;;;;;5019780;28;20053;-71
2023/06/19 05:59:48;;;;;;;8.77;5.53;;;23.00;99.90;;;;;;5018038;28;20037;-71
2023/06/19 06:02:14;;;;;;;7.68;5.00;;;23.00;99.90;;;;;;5019189;28;20025;-71
2023/06/19 06:04:39;;;;;;;9.07;5.35;;;23.10;99.90;;;;;;5019304;28;20057;-71
2023/06/19 06:07:05;;;;;;;9.18;5.90;;;23.10;99.90;;;;;;5019053;28;20026;-71
2023/06/19 06:09:32;;;;;;;6.82;4.88;;;23.10;99.90;;;;;;5019015;28;20025;-71
2023/06/19 06:11:58;;;;;;;7.88;5.85;;;23.10;99.90;;;;;;5019032;28;20022;-71
2023/06/19 06:14:24;;;;;;;12.73;5.45;;;23.00;99.90;;;;;;5018904;28;20018;-71
2023/06/19 06:16:49;;;;;;;9.55;5.20;;;23.00;99.90;;;;;;5018995;28;20052;-71
2023/06/19 06:19:15;;;;;;;6.75;5.20;;;23.00;99.90;;;;;;5019432;28;20022;-71
2023/06/19 06:21:41;;;;;;;7.65;5.22;;;23.10;99.90;;;;;;5018386;28;20026;-71
2023/06/19 06:24:06;;;;;;;7.75;5.35;;;23.20;99.90;;;;;;5018742;28;20080;-71
2023/06/19 06:26:33;;;;;;;7.55;5.55;;;23.20;99.90;;;;;;5018528;28;20029;-71
2023/06/19 06:28:58;;;;;;;7.28;5.53;;;23.30;99.90;;;;;;5019549;28;20033;-71
2023/06/19 06:31:24;;;;;;;14.38;5.00;;;23.40;99.90;;;;;;5019404;28;20026;-71
2023/06/19 06:33:50;;;;;;;5.60;4.60;;;23.50;99.90;;;;;;5018133;28;20034;-71
2023/06/19 06:36:15;;;;;;;10.30;5.03;;;23.60;99.90;;;;;;5018580;28;20022;-71
2023/06/19 06:38:41;;;;;;;9.23;4.95;;;23.60;99.90;;;;;;5018278;28;20129;-71
2023/06/19 06:41:08;;;;;;;6.05;4.47;;;23.60;99.90;;;;;;5018446;28;20030;-71
2023/06/19 06:43:33;;;;;;;6.00;4.50;;;23.60;99.90;;;;;;5018230;28;20034;-71
2023/06/19 06:45:59;;;;;;;6.45;4.68;;;23.60;99.90;;;;;;5018575;28;20026;-71
2023/06/19 06:48:25;;;;;;;5.82;4.70;;;23.60;99.90;;;;;;5018531;28;20018;-71
2023/06/19 06:50:51;;;;;;;6.35;4.63;;;23.60;99.90;;;;;;5018306;28;20030;-71
2023/06/19 06:53:16;;;;;;;5.55;4.22;;;23.60;99.90;;;;;;5018352;28;20021;-70
2023/06/19 06:55:42;;;;;;;9.02;4.20;;;23.70;99.90;;;;;;5018958;28;20033;-70
2023/06/19 06:58:07;;;;;;;5.43;4.43;;;23.90;99.90;;;;;;5018006;28;20129;-71
2023/06/19 07:00:33;;;;;;;7.80;4.43;;;24.00;99.90;;;;;;5018038;28;20048;-71
2023/06/19 07:02:58;;;;;;;7.20;4.35;;;24.00;99.90;;;;;;5017705;28;20033;-71
2023/06/19 07:05:24;;;;;;;7.75;4.32;;;24.10;99.90;;;;;;5018650;28;20022;-71
2023/06/19 07:07:49;;;;;;;6.53;4.25;;;24.10;99.90;;;;;;5017980;28;20041;-71
2023/06/19 07:10:15;;;;;;;5.78;4.13;;;24.10;99.90;;;;;;5018326;28;20022;-71
2023/06/19 07:12:45;;;;;;;4.78;4.07;;;24.10;99.90;;;;;;5018259;28;20022;-77
2023/06/19 07:15:11;;;;;;;5.25;4.70;;;24.10;99.90;;;;;;5017842;28;20026;-77
2023/06/19 07:17:37;;;;;;;6.95;4.07;;;24.10;99.90;;;;;;5018574;28;20029;-75
2023/06/19 07:20:03;;;;;;;5.55;4.07;;;24.10;99.90;;;;;;5018045;28;20029;-77
2023/06/19 07:22:29;;;;;;;5.82;4.38;;;24.10;99.90;;;;;;5018442;28;20045;-75
2023/06/19 07:24:54;;;;;;;6.88;4.28;;;24.10;99.90;;;;;;5017463;28;20069;-74
2023/06/19 07:27:20;;;;;;;5.18;3.60;;;24.30;99.90;;;;;;5018490;28;20021;-75
2023/06/19 07:29:46;;;;;;;6.20;4.13;;;24.30;99.90;;;;;;5017874;28;20029;-75
2023/06/19 07:32:11;;;;;;;4.93;3.90;;;24.30;99.90;;;;;;5018093;28;20028;-75
2023/06/19 07:34:37;;;;;;;5.97;3.70;;;24.30;99.90;;;;;;5041341;22;20120;-72
2023/06/19 07:37:03;;;;;;;7.40;3.85;;;24.30;99.90;;;;;;5017513;28;20030;-73
2023/06/19 07:39:28;;;;;;;5.18;3.92;;;24.10;99.90;;;;;;5017466;28;20072;-74
2023/06/19 07:41:54;;;;;;;9.18;4.35;;;24.00;99.90;;;;;;5017983;28;20029;-74
2023/06/19 07:44:20;;;;;;;7.22;3.78;;;24.00;99.90;;;;;;5017451;28;20113;-73
2023/06/19 07:46:46;;;;;;;5.03;3.58;;;23.90;99.90;;;;;;5017846;28;20071;-72
2023/06/19 07:49:12;;;;;;;5.93;3.90;;;23.90;99.90;;;;;;5018158;28;20025;-72
2023/06/19 07:51:37;;;;;;;7.22;3.63;;;24.00;99.90;;;;;;5017126;28;20030;-72
2023/06/19 07:54:03;;;;;;;8.25;3.70;;;24.10;99.90;;;;;;5017948;28;20033;-72
2023/06/19 07:56:29;;;;;;;7.78;3.90;;;24.20;99.90;;;;;;5016936;28;20025;-72
2023/06/19 07:58:54;;;;;;;4.40;3.78;;;24.10;99.90;;;;;;5017804;28;20045;-72
2023/06/19 08:01:20;;;;;;;5.80;4.05;;;24.30;99.90;;;;;;5016824;28;20030;-72
2023/06/19 08:03:46;;;;;;;5.45;4.00;;;24.40;99.90;;;;;;5017190;28;20026;-71
2023/06/19 08:06:11;;;;;;;7.43;3.35;;;24.40;99.90;;;;;;5017104;28;20022;-71
2023/06/19 08:08:37;;;;;;;7.03;4.20;;;24.40;99.90;;;;;;5017756;28;20049;-71
2023/06/19 08:11:03;;;;;;;6.35;3.80;;;24.50;99.90;;;;;;5017390;28;20060;-71
2023/06/19 08:13:28;;;;;;;5.88;3.63;;;24.40;99.90;;;;;;5016581;28;20032;-71
2023/06/19 08:15:54;;;;;;;4.63;3.80;;;24.40;99.90;;;;;;5017747;28;20030;-71
2023/06/19 08:18:19;;;;;;;10.88;4.43;;;24.30;99.90;;;;;;5016631;28;20034;-71
2023/06/19 08:20:45;;;;;;;4.90;4.03;;;24.40;99.90;;;;;;5016859;28;20076;-71
2023/06/19 08:23:10;;;;;;;5.03;4.22;;;24.40;99.90;;;;;;5017143;28;20033;-71
2023/06/19 08:25:36;;;;;;;6.63;4.03;;;24.30;99.90;;;;;;5017256;28;20030;-71
2023/06/19 08:28:02;;;;;;;9.52;4.07;;;24.10;99.90;;;;;;5016529;28;20048;-71
2023/06/19 08:30:27;;;;;;;6.68;4.05;;;24.20;99.90;;;;;;5016478;28;20080;-71
2023/06/19 08:32:53;;;;;;;6.43;4.25;;;24.30;99.90;;;;;;5016353;28;20113;-71
2023/06/19 08:35:18;;;;;;;6.75;4.18;;;24.30;99.90;;;;;;5016801;28;20037;-71
2023/06/19 08:37:44;;;;;;;5.03;3.63;;;24.40;99.90;;;;;;5016247;28;20025;-71
2023/06/19 08:40:11;;;;;;;5.75;3.80;;;24.50;99.90;;;;;;5016153;28;20018;-71
2023/06/19 08:42:38;;;;;;;4.07;3.50;;;24.70;99.90;;;;;;5017148;28;20044;-71
2023/06/19 08:45:06;;;;;;;3.55;3.22;;;24.70;99.90;;;;;;5016655;28;20018;-71
2023/06/19 08:47:33;;;;;;;5.63;3.45;;;24.80;99.90;;;;;;5016008;28;20029;-71
2023/06/19 08:49:59;;;;;;;3.92;3.30;;;24.90;99.90;;;;;;5017126;28;20110;-71
2023/06/19 08:52:25;;;;;;;7.28;4.03;;;24.90;99.90;;;;;;5017087;28;20080;-71
2023/06/19 08:54:50;;;;;;;7.28;3.55;;;24.90;99.90;;;;;;5016600;28;20029;-71
2023/06/19 08:57:16;;;;;;;5.70;3.58;;;24.90;99.90;;;;;;5016225;28;20068;-71
2023/06/19 08:59:51;;;;;;;4.90;4.00;;;24.90;99.90;;;;;;5016288;28;20026;-71
2023/06/19 09:02:17;;;;;;;6.03;3.75;;;25.00;99.90;;;;;;5017050;28;20029;-71
2023/06/19 09:04:43;;;;;;;5.05;3.28;;;25.20;99.90;;;;;;5016074;28;20018;-71
2023/06/19 09:07:09;;;;;;;4.82;3.00;;;25.30;99.90;;;;;;5016020;28;20098;-71
2023/06/19 09:09:35;;;;;;;5.95;3.53;;;25.30;99.90;;;;;;5017330;28;20018;-71
2023/06/19 09:12:06;;;;;;;4.20;3.38;;;25.30;99.90;;;;;;5017175;28;20049;-71
2023/06/19 09:14:32;;;;;;;7.80;3.40;;;25.30;99.90;;;;;;5015961;28;20026;-71
2023/06/19 09:16:57;;;;;;;4.72;3.55;;;25.30;99.90;;;;;;5016364;28;20080;-71
2023/06/19 09:19:23;;;;;;;11.13;5.10;;;25.20;99.90;;;;;;5015905;28;20028;-71
2023/06/19 09:21:48;;;;;;;6.55;3.83;;;25.20;99.90;;;;;;5016237;28;20026;-72
2023/06/19 09:24:15;;;;;;;7.40;3.70;;;25.20;99.90;;;;;;5016313;28;20055;-71
2023/06/19 09:26:40;;;;;;;7.25;4.70;;;25.30;99.90;;;;;;5015894;28;20029;-71
2023/06/19 09:29:14;;;;;;;5.43;3.83;;;25.40;99.90;;;;;;5016763;28;20026;-71
2023/06/19 09:31:41;;;;;;;6.18;4.05;;;25.40;99.90;;;;;;5016820;28;20029;-71
2023/06/19 09:34:07;;;;;;;5.57;4.13;;;25.50;99.90;;;;;;5017701;28;20152;-71
2023/06/19 09:36:34;;;;;;;5.15;4.05;;;25.50;99.90;;;;;;5019992;28;20034;-71
2023/06/19 09:39:00;;;;;;;10.65;4.43;;;25.50;99.90;;;;;;5020189;28;20089;-72
2023/06/19 09:41:26;;;;;;;7.75;3.90;;;25.40;99.90;;;;;;5019391;28;20116;-71
2023/06/19 09:43:57;;;;;;;5.70;3.13;;;25.40;99.90;;;;;;5020372;28;20044;-71
2023/06/19 09:46:29;;;;;;;5.07;3.67;;;25.40;99.90;;;;;;5020911;28;20032;-71
2023/06/19 09:48:58;;;;;;;4.78;4.13;;;25.40;99.90;;;;;;5019456;28;20032;-71
2023/06/19 09:51:30;;;;;;;8.18;4.07;;;25.40;99.90;;;;;;5020360;28;20022;-72
2023/06/19 09:53:58;;;;;;;7.07;4.00;;;25.50;99.90;;;;;;5019848;28;20036;-72
2023/06/19 09:56:25;;;;;;;4.05;3.65;;;25.50;99.90;;;;;;5020055;28;20026;-71
2023/06/19 09:58:54;;;;;;;5.82;3.65;;;25.60;99.90;;;;;;5019432;28;20033;-74
2023/06/19 10:01:20;;;;;;;4.88;3.65;;;25.70;99.90;;;;;;5020279;28;20057;-74
2023/06/19 10:03:46;;;;;;;4.43;3.13;;;25.70;99.90;;;;;;5019042;28;20113;-73
2023/06/19 10:06:16;;;;;;;6.07;3.35;;;25.90;99.90;;;;;;5019234;28;20042;-73
2023/06/19 10:08:43;;;;;;;4.75;3.72;;;25.90;99.90;;;;;;5020265;28;20057;-74
2023/06/19 10:11:10;;;;;;;5.05;4.00;;;26.00;99.90;;;;;;5018893;28;20022;-73
2023/06/19 10:13:40;;;;;;;5.72;3.67;;;26.10;99.90;;;;;;5019968;28;20026;-73
2023/06/19 10:16:26;;;;;;;3.90;3.50;;;26.30;99.90;;;;;;5019419;28;20033;-74
2023/06/19 10:18:52;;;;;;;3.70;3.40;;;26.50;99.90;;;;;;5018493;28;20065;-73
2023/06/19 10:21:18;;;;;;;5.78;3.90;;;26.60;99.90;;;;;;5018716;28;20046;-73
2023/06/19 10:23:54;;;;;;;4.90;3.35;;;26.50;99.90;;;;;;5018549;28;20117;-73
2023/06/19 10:26:21;;;;;;;5.20;3.80;;;26.60;99.90;;;;;;5018681;28;20022;-73
2023/06/19 10:28:49;;;;;;;5.47;4.18;;;26.60;99.90;;;;;;5018488;28;20026;-74
2023/06/19 10:31:15;;;;;;;4.93;3.95;;;26.60;99.90;;;;;;5019147;28;20026;-73
2023/06/19 10:33:40;;;;;;;4.88;3.53;;;26.70;99.90;;;;;;5018374;28;20034;-74
2023/06/19 10:36:25;;;;;;;5.38;3.90;;;26.80;99.90;;;;;;5018366;28;20029;-74
2023/06/19 10:38:50;;;;;;;5.72;4.35;;;26.80;99.90;;;;;;5018431;28;20030;-74
2023/06/19 10:41:17;;;;;;;8.65;4.38;;;26.80;99.90;;;;;;5018535;28;20030;-73
2023/06/19 10:43:56;;;;;;;5.40;3.70;;;26.90;99.90;;;;;;5018529;28;20049;-73
2023/06/19 10:46:23;;;;;;;6.50;3.45;;;26.90;99.90;;;;;;5018452;28;20041;-72
2023/06/19 10:48:50;;;;;;;7.10;4.00;;;27.00;99.90;;;;;;5018222;28;20026;-72
2023/06/19 10:51:20;;;;;;;6.45;3.83;;;27.00;99.90;;;;;;5017993;28;20072;-74
2023/06/19 10:53:45;;;;;;;4.75;3.70;;;27.00;99.90;;;;;;5017850;28;20037;-73
2023/06/19 10:56:11;;;;;;;4.45;3.42;;;27.60;99.90;;;;;;5018676;28;20030;-73
2023/06/19 10:58:36;;;;;;;4.10;3.25;;;28.20;99.90;;;;;;5017999;28;20048;-73
2023/06/19 11:01:02;;;;;;;5.40;3.38;;;28.80;99.90;;;;;;5017934;28;20058;-73
2023/06/19 11:03:28;;;;;;;5.70;3.95;;;29.10;99.90;;;;;;5018702;28;20022;-73
2023/06/19 11:05:54;;;;;;;3.60;3.28;;;29.50;99.90;;;;;;5017751;28;20056;-73
2023/06/19 11:08:22;;;;;;;6.07;3.67;;;30.20;99.90;;;;;;5017838;28;20026;-73
2023/06/19 11:10:50;;;;;;;11.00;3.97;;;30.40;99.90;;;;;;5018503;28;20026;-73
2023/06/19 11:13:18;;;;;;;4.50;3.33;;;30.80;99.90;;;;;;5017562;28;20033;-73
2023/06/19 11:15:44;;;;;;;5.05;3.40;;;31.10;99.90;;;;;;5018457;28;20026;-73
2023/06/19 11:18:10;;;;;;;4.65;3.47;;;31.30;99.90;;;;;;5018043;28;20026;-73
2023/06/19 11:20:50;;;;;;;4.32;3.50;;;31.10;99.90;;;;;;5017582;28;20059;-73
2023/06/19 11:23:26;;;;;;;4.68;3.95;;;30.80;99.90;;;;;;5018764;28;20018;-73
2023/06/19 11:25:52;;;;;;;5.78;4.05;;;30.70;99.90;;;;;;5017387;28;20048;-73
2023/06/19 11:28:22;;;;;;;5.25;3.67;;;30.30;99.90;;;;;;5017722;28;20086;-73
2023/06/19 11:30:49;;;;;;;5.43;3.72;;;29.90;99.90;;;;;;5017315;28;20026;-73
2023/06/19 11:33:24;;;;;;;4.95;3.70;;;30.00;99.90;;;;;;5017916;28;20145;-73
2023/06/19 11:35:54;;;;;;;3.35;3.05;;;29.80;99.90;;;;;;5017266;28;20063;-73
2023/06/19 11:38:21;;;;;;;5.05;3.38;;;30.20;99.90;;;;;;5018114;28;20025;-74
2023/06/19 11:40:47;;;;;;;4.32;3.63;;;30.30;99.90;;;;;;5018055;28;20040;-75
2023/06/19 11:43:27;;;;;;;5.68;3.30;;;30.20;99.90;;;;;;5017219;28;20045;-74
2023/06/19 11:45:54;;;;;;;4.93;3.20;;;30.20;99.90;;;;;;5017874;28;20068;-73
2023/06/19 11:48:26;;;;;;;3.88;3.58;;;30.40;99.90;;;;;;5017899;28;20026;-73
2023/06/19 11:50:52;;;;;;;3.25;2.95;;;30.40;99.90;;;;;;5018027;28;20037;-73
2023/06/19 11:53:19;;;;;;;4.20;3.63;;;30.50;99.90;;;;;;5018043;28;20029;-73
2023/06/19 11:55:45;;;;;;;4.70;3.22;;;30.60;99.90;;;;;;5017011;28;20026;-74
2023/06/19 11:58:11;;;;;;;5.82;3.72;;;30.10;99.90;;;;;;5015999;28;20026;-74
2023/06/19 12:00:37;;;;;;;5.97;4.05;;;30.10;99.90;;;;;;5017936;28;20065;-74
2023/06/19 12:03:03;;;;;;;5.28;3.17;;;30.30;99.90;;;;;;5016864;28;20115;-74
2023/06/19 12:05:29;;;;;;;5.40;3.45;;;30.10;99.90;;;;;;5016677;28;20029;-74
2023/06/19 12:07:54;;;;;;;5.30;3.92;;;29.90;99.90;;;;;;5017719;28;20100;-74
2023/06/19 12:10:20;;;;;;;3.70;3.25;;;30.10;99.90;;;;;;5017257;28;20022;-74
2023/06/19 12:12:45;;;;;;;4.10;3.70;;;30.20;99.90;;;;;;5017748;28;20132;-74
2023/06/19 12:15:11;;;;;;;6.60;3.88;;;30.60;99.90;;;;;;5016654;28;20021;-74
2023/06/19 12:17:37;;;;;;;4.25;3.25;;;30.70;99.90;;;;;;5017540;28;20030;-74
2023/06/19 12:20:07;;;;;;;3.95;3.38;;;30.80;99.90;;;;;;5016689;28;20025;-74
2023/06/19 12:22:35;;;;;;;4.10;3.45;;;30.60;99.90;;;;;;5017540;28;20056;-74
2023/06/19 12:25:01;;;;;;;5.20;3.90;;;30.50;99.90;;;;;;5016651;28;20031;-73
2023/06/19 12:27:27;;;;;;;6.43;3.53;;;30.40;99.90;;;;;;5016501;28;20026;-73
2023/06/19 12:29:52;;;;;;;4.80;3.83;;;30.00;99.90;;;;;;5016523;28;20022;-74
2023/06/19 12:32:18;;;;;;;7.45;3.42;;;29.60;99.90;;;;;;5016581;28;20022;-73
2023/06/19 12:34:46;;;;;;;8.13;3.50;;;29.70;99.90;;;;;;5016309;28;20069;-74
2023/06/19 12:37:17;;;;;;;4.55;3.60;;;29.60;99.90;;;;;;5016458;28;20022;-74
2023/06/19 12:39:43;;;;;;;4.03;3.50;;;29.70;99.90;;;;;;5016605;28;20022;-74